sensor_id;sensor_type;location;lat;lon;timestamp;temperature;humidity
20422;DHT22;10370;53.102;18.034;2022-09-09T00:00:53;13.20;99.90
20422;DHT22;10370;53.102;18.034;2022-09-09T00:12:02;13.20;99.90
20422;DHT22;10370;53.102;18.034;2022-09-09T00:17:46;13.10;99.90
20422;DHT22;10370;53.102;18.034;2022-09-09T00:23:29;13.10;99.90
20422;DHT22;10370;53.102;18.034;2022-09-09T00:28:52;13.00;99.90
20422;DHT22;10370;53.102;18.034;2022-09-09T00:34:23;13.00;99.90
20422;DHT22;10370;53.102;18.034;2022-09-09T00:39:49;13.10;99.90
20422;DHT22;10370;53.102;18.034;2022-09-09T00:51:04;13.00;99.90
20422;DHT22;10370;53.102;18.034;2022-09-09T00:56:37;13.10;99.90
20422;DHT22;10370;53.102;18.034;2022-09-09T01:02:30;13.00;99.90
20422;DHT22;10370;53.102;18.034;2022-09-09T01:07:52;13.00;99.90
20422;DHT22;10370;53.102;18.034;2022-09-09T01:13:27;13.00;99.90
20422;DHT22;10370;53.102;18.034;2022-09-09T01:18:53;13.00;99.90
20422;DHT22;10370;53.102;18.034;2022-09-09T01:24:40;13.00;99.90
20422;DHT22;10370;53.102;18.034;2022-09-09T01:30:14;13.00;99.90
20422;DHT22;10370;53.102;18.034;2022-09-09T01:41:09;12.90;99.90
20422;DHT22;10370;53.102;18.034;2022-09-09T01:46:30;12.90;99.90
20422;DHT22;10370;53.102;18.034;2022-09-09T01:51:55;12.80;99.90
20422;DHT22;10370;53.102;18.034;2022-09-09T01:57:24;12.80;99.90
20422;DHT22;10370;53.102;18.034;2022-09-09T02:08:38;12.70;99.90
20422;DHT22;10370;53.102;18.034;2022-09-09T02:14:13;12.80;99.90
20422;DHT22;10370;53.102;18.034;2022-09-09T02:19:45;12.70;99.90
20422;DHT22;10370;53.102;18.034;2022-09-09T02:25:08;12.70;99.90
20422;DHT22;10370;53.102;18.034;2022-09-09T02:30:30;12.70;99.90
20422;DHT22;10370;53.102;18.034;2022-09-09T02:35:54;12.70;99.90
20422;DHT22;10370;53.102;18.034;2022-09-09T02:41:24;12.70;99.90
20422;DHT22;10370;53.102;18.034;2022-09-09T02:58:16;12.70;99.90
20422;DHT22;10370;53.102;18.034;2022-09-09T03:03:37;12.70;99.90
20422;DHT22;10370;53.102;18.034;2022-09-09T03:08:58;12.70;99.90
20422;DHT22;10370;53.102;18.034;2022-09-09T03:14:22;12.70;99.90
20422;DHT22;10370;53.102;18.034;2022-09-09T03:19:46;12.70;99.90
20422;DHT22;10370;53.102;18.034;2022-09-09T03:25:13;12.70;99.90
20422;DHT22;10370;53.102;18.034;2022-09-09T03:30:34;12.70;99.90
20422;DHT22;10370;53.102;18.034;2022-09-09T03:35:55;12.70;99.90
20422;DHT22;10370;53.102;18.034;2022-09-09T03:41:16;12.70;99.90
20422;DHT22;10370;53.102;18.034;2022-09-09T03:46:37;12.70;99.90
20422;DHT22;10370;53.102;18.034;2022-09-09T03:51:58;12.70;99.90
20422;DHT22;10370;53.102;18.034;2022-09-09T03:57:19;12.70;99.90
20422;DHT22;10370;53.102;18.034;2022-09-09T04:02:40;12.70;99.90
20422;DHT22;10370;53.102;18.034;2022-09-09T04:08:01;12.70;99.90
20422;DHT22;10370;53.102;18.034;2022-09-09T04:13:22;12.70;99.90
20422;DHT22;10370;53.102;18.034;2022-09-09T04:18:42;12.80;99.90
20422;DHT22;10370;53.102;18.034;2022-09-09T04:24:04;12.80;99.90
20422;DHT22;10370;53.102;18.034;2022-09-09T04:29:24;12.70;99.90
20422;DHT22;10370;53.102;18.034;2022-09-09T04:34:45;12.80;99.90
20422;DHT22;10370;53.102;18.034;2022-09-09T04:40:08;12.80;99.90
20422;DHT22;10370;53.102;18.034;2022-09-09T04:45:32;12.80;99.90
20422;DHT22;10370;53.102;18.034;2022-09-09T04:50:57;12.80;99.90
20422;DHT22;10370;53.102;18.034;2022-09-09T04:56:19;12.80;99.90
20422;DHT22;10370;53.102;18.034;2022-09-09T05:01:40;12.90;99.90
20422;DHT22;10370;53.102;18.034;2022-09-09T05:07:02;12.90;99.90
20422;DHT22;10370;53.102;18.034;2022-09-09T05:12:23;12.90;99.90
20422;DHT22;10370;53.102;18.034;2022-09-09T05:17:47;12.90;99.90
20422;DHT22;10370;53.102;18.034;2022-09-09T05:23:22;12.90;99.90
20422;DHT22;10370;53.102;18.034;2022-09-09T05:28:43;13.00;99.90
20422;DHT22;10370;53.102;18.034;2022-09-09T05:34:04;13.00;99.90
20422;DHT22;10370;53.102;18.034;2022-09-09T05:39:25;13.10;99.90
20422;DHT22;10370;53.102;18.034;2022-09-09T05:44:46;13.00;99.90
20422;DHT22;10370;53.102;18.034;2022-09-09T05:50:07;13.00;99.90
20422;DHT22;10370;53.102;18.034;2022-09-09T05:55:28;13.10;99.90
20422;DHT22;10370;53.102;18.034;2022-09-09T06:00:50;13.20;99.90
20422;DHT22;10370;53.102;18.034;2022-09-09T06:06:14;13.30;99.90
20422;DHT22;10370;53.102;18.034;2022-09-09T06:11:37;13.20;99.90
20422;DHT22;10370;53.102;18.034;2022-09-09T06:16:59;13.30;99.90
20422;DHT22;10370;53.102;18.034;2022-09-09T06:22:20;13.30;99.90
20422;DHT22;10370;53.102;18.034;2022-09-09T06:27:41;13.30;99.90
20422;DHT22;10370;53.102;18.034;2022-09-09T06:33:02;13.40;99.90
20422;DHT22;10370;53.102;18.034;2022-09-09T06:38:24;13.30;99.90
20422;DHT22;10370;53.102;18.034;2022-09-09T06:43:48;13.40;99.90
20422;DHT22;10370;53.102;18.034;2022-09-09T06:49:09;13.50;99.90
20422;DHT22;10370;53.102;18.034;2022-09-09T06:54:31;13.50;99.90
20422;DHT22;10370;53.102;18.034;2022-09-09T06:59:51;13.50;99.90
20422;DHT22;10370;53.102;18.034;2022-09-09T07:05:12;13.60;99.90
20422;DHT22;10370;53.102;18.034;2022-09-09T07:10:34;13.70;99.90
20422;DHT22;10370;53.102;18.034;2022-09-09T07:15:54;13.70;99.90
20422;DHT22;10370;53.102;18.034;2022-09-09T07:21:16;13.80;99.90
20422;DHT22;10370;53.102;18.034;2022-09-09T07:26:39;13.90;99.90
20422;DHT22;10370;53.102;18.034;2022-09-09T07:32:03;14.10;99.90
20422;DHT22;10370;53.102;18.034;2022-09-09T07:37:24;14.20;99.90
20422;DHT22;10370;53.102;18.034;2022-09-09T07:42:46;14.30;99.90
20422;DHT22;10370;53.102;18.034;2022-09-09T07:48:08;14.40;99.90
20422;DHT22;10370;53.102;18.034;2022-09-09T07:53:31;14.70;99.90
20422;DHT22;10370;53.102;18.034;2022-09-09T07:58:54;14.90;99.90
20422;DHT22;10370;53.102;18.034;2022-09-09T08:04:20;15.00;99.90
20422;DHT22;10370;53.102;18.034;2022-09-09T08:09:40;14.90;99.90
20422;DHT22;10370;53.102;18.034;2022-09-09T08:15:02;15.00;99.90
20422;DHT22;10370;53.102;18.034;2022-09-09T08:20:22;15.20;99.90
20422;DHT22;10370;53.102;18.034;2022-09-09T08:25:44;15.30;99.90
20422;DHT22;10370;53.102;18.034;2022-09-09T08:31:14;15.40;99.90
20422;DHT22;10370;53.102;18.034;2022-09-09T08:36:39;15.40;99.90
20422;DHT22;10370;53.102;18.034;2022-09-09T08:48:04;15.60;99.90
20422;DHT22;10370;53.102;18.034;2022-09-09T08:53:34;15.60;99.90
20422;DHT22;10370;53.102;18.034;2022-09-09T08:59:00;15.90;99.90
20422;DHT22;10370;53.102;18.034;2022-09-09T09:10:28;16.10;99.90
20422;DHT22;10370;53.102;18.034;2022-09-09T09:16:28;16.20;99.90
20422;DHT22;10370;53.102;18.034;2022-09-09T09:22:04;16.30;99.90
20422;DHT22;10370;53.102;18.034;2022-09-09T09:27:34;16.50;99.90
20422;DHT22;10370;53.102;18.034;2022-09-09T09:33:08;16.60;99.90
20422;DHT22;10370;53.102;18.034;2022-09-09T09:38:36;16.70;99.90
20422;DHT22;10370;53.102;18.034;2022-09-09T09:44:32;16.70;99.90
20422;DHT22;10370;53.102;18.034;2022-09-09T09:50:00;16.90;99.90
20422;DHT22;10370;53.102;18.034;2022-09-09T09:55:30;16.90;99.90
20422;DHT22;10370;53.102;18.034;2022-09-09T10:00:55;17.00;99.90
20422;DHT22;10370;53.102;18.034;2022-09-09T10:06:16;17.10;99.90
20422;DHT22;10370;53.102;18.034;2022-09-09T10:11:44;17.30;99.90
20422;DHT22;10370;53.102;18.034;2022-09-09T10:17:40;17.50;99.90
20422;DHT22;10370;53.102;18.034;2022-09-09T10:23:36;17.70;99.90
20422;DHT22;10370;53.102;18.034;2022-09-09T10:51:15;18.20;99.90
20422;DHT22;10370;53.102;18.034;2022-09-09T10:56:42;18.30;99.90
20422;DHT22;10370;53.102;18.034;2022-09-09T11:08:08;18.60;99.90
20422;DHT22;10370;53.102;18.034;2022-09-09T11:19:30;18.40;99.90
20422;DHT22;10370;53.102;18.034;2022-09-09T11:41:38;18.60;99.90
20422;DHT22;10370;53.102;18.034;2022-09-09T11:46:59;18.50;99.90
20422;DHT22;10370;53.102;18.034;2022-09-09T11:52:35;18.80;99.90
20422;DHT22;10370;53.102;18.034;2022-09-09T11:57:58;18.80;99.90
20422;DHT22;10370;53.102;18.034;2022-09-09T12:09:17;18.80;99.90
20422;DHT22;10370;53.102;18.034;2022-09-09T12:14:54;18.90;99.90
20422;DHT22;10370;53.102;18.034;2022-09-09T12:25:58;19.10;99.90
20422;DHT22;10370;53.102;18.034;2022-09-09T12:42:33;19.50;99.90
20422;DHT22;10370;53.102;18.034;2022-09-09T12:48:07;19.60;99.90
20422;DHT22;10370;53.102;18.034;2022-09-09T12:53:33;19.50;99.90
20422;DHT22;10370;53.102;18.034;2022-09-09T12:58:56;19.60;99.90
20422;DHT22;10370;53.102;18.034;2022-09-09T13:04:21;19.60;99.90
20422;DHT22;10370;53.102;18.034;2022-09-09T13:09:46;19.60;99.90
20422;DHT22;10370;53.102;18.034;2022-09-09T13:15:19;19.80;99.90
20422;DHT22;10370;53.102;18.034;2022-09-09T13:20:46;19.60;99.90
20422;DHT22;10370;53.102;18.034;2022-09-09T13:26:25;19.60;99.90
20422;DHT22;10370;53.102;18.034;2022-09-09T13:31:46;19.90;99.90
20422;DHT22;10370;53.102;18.034;2022-09-09T13:37:26;20.00;99.90
20422;DHT22;10370;53.102;18.034;2022-09-09T13:42:57;20.00;99.90
20422;DHT22;10370;53.102;18.034;2022-09-09T13:48:19;20.20;99.90
20422;DHT22;10370;53.102;18.034;2022-09-09T13:53:40;20.30;99.90
20422;DHT22;10370;53.102;18.034;2022-09-09T13:59:02;20.40;99.90
20422;DHT22;10370;53.102;18.034;2022-09-09T14:04:23;20.70;99.90
20422;DHT22;10370;53.102;18.034;2022-09-09T14:09:44;20.60;99.90
20422;DHT22;10370;53.102;18.034;2022-09-09T14:15:11;20.40;99.90
20422;DHT22;10370;53.102;18.034;2022-09-09T14:20:32;20.20;99.90
20422;DHT22;10370;53.102;18.034;2022-09-09T14:25:53;20.00;99.90
20422;DHT22;10370;53.102;18.034;2022-09-09T14:31:14;19.90;99.90
20422;DHT22;10370;53.102;18.034;2022-09-09T14:36:37;20.00;99.90
20422;DHT22;10370;53.102;18.034;2022-09-09T14:41:58;20.00;99.90
20422;DHT22;10370;53.102;18.034;2022-09-09T14:47:20;20.00;99.90
20422;DHT22;10370;53.102;18.034;2022-09-09T14:52:41;19.70;99.90
20422;DHT22;10370;53.102;18.034;2022-09-09T14:58:03;19.50;99.90
20422;DHT22;10370;53.102;18.034;2022-09-09T15:03:23;19.40;99.90
20422;DHT22;10370;53.102;18.034;2022-09-09T15:08:45;19.50;99.90
20422;DHT22;10370;53.102;18.034;2022-09-09T15:14:08;19.50;99.90
20422;DHT22;10370;53.102;18.034;2022-09-09T15:19:29;19.30;99.90
20422;DHT22;10370;53.102;18.034;2022-09-09T15:24:51;19.10;99.90
20422;DHT22;10370;53.102;18.034;2022-09-09T15:30:12;19.10;99.90
20422;DHT22;10370;53.102;18.034;2022-09-09T15:35:33;19.20;99.90
20422;DHT22;10370;53.102;18.034;2022-09-09T15:40:56;19.20;99.90
20422;DHT22;10370;53.102;18.034;2022-09-09T15:46:34;19.20;99.90
20422;DHT22;10370;53.102;18.034;2022-09-09T15:51:58;19.10;99.90
20422;DHT22;10370;53.102;18.034;2022-09-09T15:57:19;19.10;99.90
20422;DHT22;10370;53.102;18.034;2022-09-09T16:02:40;18.90;99.90
20422;DHT22;10370;53.102;18.034;2022-09-09T16:08:04;18.90;99.90
20422;DHT22;10370;53.102;18.034;2022-09-09T16:13:25;18.70;99.90
20422;DHT22;10370;53.102;18.034;2022-09-09T16:18:48;18.60;99.90
20422;DHT22;10370;53.102;18.034;2022-09-09T16:24:11;18.60;99.90
20422;DHT22;10370;53.102;18.034;2022-09-09T16:29:32;18.60;99.90
20422;DHT22;10370;53.102;18.034;2022-09-09T16:34:53;18.50;99.90
20422;DHT22;10370;53.102;18.034;2022-09-09T16:40:14;18.40;99.90
20422;DHT22;10370;53.102;18.034;2022-09-09T16:45:44;18.30;99.90
20422;DHT22;10370;53.102;18.034;2022-09-09T16:51:08;18.20;99.90
20422;DHT22;10370;53.102;18.034;2022-09-09T16:56:32;18.00;99.90
20422;DHT22;10370;53.102;18.034;2022-09-09T17:01:54;17.90;99.90
20422;DHT22;10370;53.102;18.034;2022-09-09T17:07:15;17.80;99.90
20422;DHT22;10370;53.102;18.034;2022-09-09T17:12:37;17.60;99.90
20422;DHT22;10370;53.102;18.034;2022-09-09T17:18:01;17.60;99.90
20422;DHT22;10370;53.102;18.034;2022-09-09T17:28:44;17.30;99.90
20422;DHT22;10370;53.102;18.034;2022-09-09T17:34:07;17.20;99.90
20422;DHT22;10370;53.102;18.034;2022-09-09T17:39:28;17.10;99.90
20422;DHT22;10370;53.102;18.034;2022-09-09T17:44:49;17.00;99.90
20422;DHT22;10370;53.102;18.034;2022-09-09T17:50:10;16.90;99.90
20422;DHT22;10370;53.102;18.034;2022-09-09T17:55:33;16.80;99.90
20422;DHT22;10370;53.102;18.034;2022-09-09T18:01:00;16.70;99.90
20422;DHT22;10370;53.102;18.034;2022-09-09T18:11:46;16.40;99.90
20422;DHT22;10370;53.102;18.034;2022-09-09T18:17:11;16.40;99.90
20422;DHT22;10370;53.102;18.034;2022-09-09T18:22:32;16.30;99.90
20422;DHT22;10370;53.102;18.034;2022-09-09T18:27:54;16.20;99.90
20422;DHT22;10370;53.102;18.034;2022-09-09T18:33:16;16.10;99.90
20422;DHT22;10370;53.102;18.034;2022-09-09T18:38:39;16.00;99.90
20422;DHT22;10370;53.102;18.034;2022-09-09T18:44:15;15.90;99.90
20422;DHT22;10370;53.102;18.034;2022-09-09T18:49:39;15.80;99.90
20422;DHT22;10370;53.102;18.034;2022-09-09T18:55:00;15.80;99.90
20422;DHT22;10370;53.102;18.034;2022-09-09T19:00:21;15.70;99.90
20422;DHT22;10370;53.102;18.034;2022-09-09T19:05:42;15.60;99.90
20422;DHT22;10370;53.102;18.034;2022-09-09T19:11:06;15.60;99.90
20422;DHT22;10370;53.102;18.034;2022-09-09T19:16:32;15.60;99.90
20422;DHT22;10370;53.102;18.034;2022-09-09T19:21:54;15.50;99.90
20422;DHT22;10370;53.102;18.034;2022-09-09T19:27:22;15.50;99.90
20422;DHT22;10370;53.102;18.034;2022-09-09T19:32:44;15.60;99.90
20422;DHT22;10370;53.102;18.034;2022-09-09T19:38:14;15.60;99.90
20422;DHT22;10370;53.102;18.034;2022-09-09T19:43:37;15.60;99.90
20422;DHT22;10370;53.102;18.034;2022-09-09T19:48:58;15.70;99.90
20422;DHT22;10370;53.102;18.034;2022-09-09T19:54:24;15.70;99.90
20422;DHT22;10370;53.102;18.034;2022-09-09T19:59:46;15.70;99.90
20422;DHT22;10370;53.102;18.034;2022-09-09T20:05:08;15.70;99.90
20422;DHT22;10370;53.102;18.034;2022-09-09T20:10:31;15.70;99.90
20422;DHT22;10370;53.102;18.034;2022-09-09T20:16:00;15.70;99.90
20422;DHT22;10370;53.102;18.034;2022-09-09T20:21:47;15.70;99.90
20422;DHT22;10370;53.102;18.034;2022-09-09T20:27:08;15.70;99.90
20422;DHT22;10370;53.102;18.034;2022-09-09T20:32:32;15.60;99.90
20422;DHT22;10370;53.102;18.034;2022-09-09T20:37:53;15.60;99.90
20422;DHT22;10370;53.102;18.034;2022-09-09T20:43:17;15.60;99.90
20422;DHT22;10370;53.102;18.034;2022-09-09T20:48:40;15.60;99.90
20422;DHT22;10370;53.102;18.034;2022-09-09T20:54:05;15.60;99.90
20422;DHT22;10370;53.102;18.034;2022-09-09T20:59:29;15.60;99.90
20422;DHT22;10370;53.102;18.034;2022-09-09T21:04:51;15.60;99.90
20422;DHT22;10370;53.102;18.034;2022-09-09T21:10:12;15.60;99.90
20422;DHT22;10370;53.102;18.034;2022-09-09T21:15:33;15.60;99.90
20422;DHT22;10370;53.102;18.034;2022-09-09T21:20:55;15.60;99.90
20422;DHT22;10370;53.102;18.034;2022-09-09T21:26:16;15.50;99.90
20422;DHT22;10370;53.102;18.034;2022-09-09T21:31:38;15.50;99.90
20422;DHT22;10370;53.102;18.034;2022-09-09T21:36:59;15.50;99.90
20422;DHT22;10370;53.102;18.034;2022-09-09T21:42:24;15.40;99.90
20422;DHT22;10370;53.102;18.034;2022-09-09T21:47:49;15.40;99.90
20422;DHT22;10370;53.102;18.034;2022-09-09T21:53:12;15.40;99.90
20422;DHT22;10370;53.102;18.034;2022-09-09T21:58:34;15.40;99.90
20422;DHT22;10370;53.102;18.034;2022-09-09T22:03:55;15.40;99.90
20422;DHT22;10370;53.102;18.034;2022-09-09T22:09:17;15.40;99.90
20422;DHT22;10370;53.102;18.034;2022-09-09T22:14:38;15.40;99.90
20422;DHT22;10370;53.102;18.034;2022-09-09T22:20:00;15.40;99.90
20422;DHT22;10370;53.102;18.034;2022-09-09T22:25:21;15.30;99.90
20422;DHT22;10370;53.102;18.034;2022-09-09T22:30:42;15.30;99.90
20422;DHT22;10370;53.102;18.034;2022-09-09T22:36:04;15.30;99.90
20422;DHT22;10370;53.102;18.034;2022-09-09T22:41:25;15.30;99.90
20422;DHT22;10370;53.102;18.034;2022-09-09T22:46:46;15.30;99.90
20422;DHT22;10370;53.102;18.034;2022-09-09T22:52:07;15.30;99.90
20422;DHT22;10370;53.102;18.034;2022-09-09T23:02:50;15.20;99.90
20422;DHT22;10370;53.102;18.034;2022-09-09T23:08:11;15.20;99.90
20422;DHT22;10370;53.102;18.034;2022-09-09T23:13:32;15.20;99.90
20422;DHT22;10370;53.102;18.034;2022-09-09T23:18:53;15.20;99.90
20422;DHT22;10370;53.102;18.034;2022-09-09T23:24:15;15.20;99.90
20422;DHT22;10370;53.102;18.034;2022-09-09T23:29:38;15.20;99.90
20422;DHT22;10370;53.102;18.034;2022-09-09T23:34:58;15.20;99.90
20422;DHT22;10370;53.102;18.034;2022-09-09T23:40:19;15.20;99.90
20422;DHT22;10370;53.102;18.034;2022-09-09T23:45:40;15.20;99.90
20422;DHT22;10370;53.102;18.034;2022-09-09T23:51:01;15.20;99.90
20422;DHT22;10370;53.102;18.034;2022-09-09T23:56:26;15.20;99.90
